createdAt,value
2023-04-21T00:03:15.215Z,9.68
2023-04-21T00:08:19.118Z,11.20
2023-04-21T00:13:21.329Z,11.55
2023-04-21T00:18:24.842Z,10.65
2023-04-21T00:23:26.975Z,11.27
2023-04-21T00:28:29.603Z,10.18
2023-04-21T00:33:33.208Z,11.52
2023-04-21T00:38:35.350Z,11.43
2023-04-21T00:43:37.529Z,10.75
2023-04-21T00:48:41.021Z,10.27
2023-04-21T00:53:43.828Z,10.52
2023-04-21T00:58:46.833Z,10.80
2023-04-21T01:03:50.936Z,9.63
2023-04-21T01:08:53.388Z,11.73
2023-04-21T01:13:56.282Z,10.95
2023-04-21T01:18:59.888Z,11.52
2023-04-21T01:24:03.590Z,11.00
2023-04-21T01:29:05.681Z,11.02
2023-04-21T01:34:08.009Z,11.70
2023-04-21T01:39:11.509Z,11.77
2023-04-21T01:44:13.597Z,11.88
2023-04-21T01:49:15.786Z,12.40
2023-04-21T01:54:19.554Z,11.57
2023-04-21T01:59:21.859Z,11.60
2023-04-21T02:04:24.084Z,11.07
2023-04-21T02:09:27.879Z,11.90
2023-04-21T02:14:29.980Z,9.07
2023-04-21T02:19:32.027Z,11.75
2023-04-21T02:24:35.557Z,10.43
2023-04-21T02:29:37.713Z,10.18
2023-04-21T02:34:39.811Z,11.02
2023-04-21T02:39:43.310Z,10.50
2023-04-21T02:44:45.379Z,10.13
2023-04-21T02:49:47.602Z,10.00
2023-04-21T02:54:51.145Z,7.80
2023-04-21T02:59:53.311Z,8.43
2023-04-21T03:04:55.407Z,12.27
2023-04-21T03:09:59.019Z,11.13
2023-04-21T03:15:01.112Z,10.63
2023-04-21T03:20:03.411Z,8.65
2023-04-21T03:25:07.659Z,12.02
2023-04-21T03:30:10.961Z,9.65
2023-04-21T03:35:13.086Z,11.23
2023-04-21T03:40:16.620Z,11.18
2023-04-21T03:45:18.869Z,13.30
2023-04-21T03:50:21.136Z,12.38
2023-04-21T03:55:24.647Z,11.57
2023-04-21T04:00:26.925Z,10.90
2023-04-21T04:05:29.108Z,9.60
2023-04-21T04:10:32.639Z,12.73
2023-04-21T04:15:34.861Z,12.77
2023-04-21T04:20:37.591Z,10.35
2023-04-21T04:25:41.105Z,9.10
2023-04-21T04:30:43.236Z,10.32
2023-04-21T04:35:45.389Z,10.32
2023-04-21T04:40:55.362Z,12.02
2023-04-21T04:45:57.503Z,10.23
2023-04-21T04:50:59.622Z,11.77
2023-04-21T04:56:03.143Z,11.57
2023-04-21T05:01:12.036Z,11.77
2023-04-21T05:06:14.283Z,10.63
2023-04-21T05:11:17.940Z,9.48
2023-04-21T05:16:20.074Z,9.90
2023-04-21T05:21:26.332Z,9.55
2023-04-21T05:26:30.518Z,9.13
2023-04-21T05:31:32.674Z,8.48
2023-04-21T05:36:34.752Z,8.68
2023-04-21T05:41:38.264Z,9.05
2023-04-21T05:46:40.591Z,8.05
2023-04-21T05:51:43.058Z,8.77
2023-04-21T05:56:46.747Z,9.05
2023-04-21T06:01:48.834Z,8.38
2023-04-21T06:06:51.072Z,7.90
2023-04-21T06:11:54.838Z,6.72
2023-04-21T06:16:56.998Z,7.30
2023-04-21T06:22:00.473Z,7.18
2023-04-21T06:27:04.343Z,7.80
2023-04-21T06:32:06.651Z,7.50
2023-04-21T06:37:08.857Z,6.57
2023-04-21T06:42:12.569Z,6.90
2023-04-21T06:47:14.956Z,6.55
2023-04-21T06:52:18.275Z,6.68
2023-04-21T06:57:24.569Z,8.48
2023-04-21T07:02:26.918Z,7.43
2023-04-21T07:07:29.310Z,6.88
2023-04-21T07:12:33.004Z,7.15
2023-04-21T07:17:35.161Z,6.25
2023-04-21T07:22:37.417Z,7.82
2023-04-21T07:27:41.093Z,7.18
2023-04-21T07:32:43.264Z,7.25
2023-04-21T07:37:45.462Z,6.05
2023-04-21T07:42:49.302Z,6.20
2023-04-21T07:47:51.592Z,6.80
2023-04-21T07:52:54.194Z,6.63
2023-04-21T07:57:57.748Z,4.93
2023-04-21T08:03:00.144Z,6.60
2023-04-21T08:08:02.737Z,5.90
2023-04-21T08:13:06.630Z,7.10
2023-04-21T08:18:09.367Z,7.10
2023-04-21T08:23:11.734Z,5.88
2023-04-21T08:28:15.281Z,6.20
2023-04-21T08:33:17.636Z,7.05
2023-04-21T08:38:19.971Z,6.95
2023-04-21T08:43:23.854Z,6.50
2023-04-21T08:48:28.111Z,6.28
2023-04-21T08:53:30.414Z,6.05
2023-04-21T08:58:34.049Z,6.70
2023-04-21T09:03:36.376Z,6.68
2023-04-21T09:08:44.229Z,6.07
2023-04-21T09:13:47.781Z,6.82
2023-04-21T09:18:50.324Z,7.75
2023-04-21T09:23:53.549Z,6.63
2023-04-21T09:28:57.259Z,7.95
2023-04-21T09:34:01.217Z,7.70
2023-04-21T09:44:13.593Z,7.47
2023-04-21T09:49:18.371Z,6.53
2023-04-21T09:59:33.057Z,6.72
2023-04-21T10:04:37.798Z,5.97
2023-04-21T10:09:46.257Z,6.72
2023-04-21T10:14:52.782Z,6.97
2023-04-21T10:19:56.699Z,6.80
2023-04-21T10:25:00.988Z,7.25
2023-04-21T10:30:19.302Z,6.78
2023-04-21T10:35:23.200Z,7.65
2023-04-21T10:40:43.914Z,6.45
2023-04-21T10:45:48.433Z,7.07
2023-04-21T10:50:50.579Z,5.82
2023-04-21T10:55:53.438Z,6.93
2023-04-21T11:00:57.559Z,6.95
2023-04-21T11:05:59.698Z,7.00
2023-04-21T11:11:01.834Z,6.20
2023-04-21T11:16:07.361Z,6.15
2023-04-21T11:21:14.237Z,7.32
2023-04-21T11:26:16.495Z,6.25
2023-04-21T11:31:20.439Z,6.88
2023-04-21T11:36:22.952Z,5.35
2023-04-21T11:41:25.662Z,5.65
2023-04-21T11:46:29.927Z,5.93
2023-04-21T11:51:35.946Z,5.70
2023-04-21T11:56:40.295Z,6.40
2023-04-21T12:01:48.038Z,5.80
2023-04-21T12:06:59.095Z,6.80
2023-04-21T12:12:03.670Z,6.20
2023-04-21T12:17:07.558Z,5.63
2023-04-21T12:22:11.505Z,6.72
2023-04-21T12:27:14.177Z,5.90
2023-04-21T12:32:17.751Z,5.30
2023-04-21T12:37:21.221Z,7.20
2023-04-21T12:42:23.407Z,5.72
2023-04-21T12:47:27.018Z,5.70
2023-04-21T12:52:29.210Z,5.05
2023-04-21T12:57:31.681Z,6.22
2023-04-21T13:02:35.762Z,5.50
2023-04-21T13:07:38.363Z,5.60
2023-04-21T13:12:40.456Z,7.13
2023-04-21T13:17:44.217Z,5.40
2023-04-21T13:22:46.318Z,6.30
2023-04-21T13:27:48.591Z,5.90
2023-04-21T13:32:52.372Z,5.00
2023-04-21T13:37:54.754Z,5.75
2023-04-21T13:42:57.040Z,5.47
2023-04-21T13:48:00.737Z,5.10
2023-04-21T13:53:03.031Z,6.60
2023-04-21T13:58:05.191Z,5.70
2023-04-21T14:03:09.800Z,4.95
2023-04-21T14:08:12.551Z,5.25
2023-04-21T14:13:23.309Z,5.72
2023-04-21T14:18:37.017Z,5.78
2023-04-21T14:23:39.401Z,5.13
2023-04-21T14:28:41.741Z,5.30
2023-04-21T14:33:45.241Z,5.57
2023-04-21T14:38:47.525Z,4.55
2023-04-21T14:43:50.058Z,5.15
2023-04-21T14:48:54.182Z,5.53
2023-04-21T14:53:56.446Z,5.60
2023-04-21T14:58:58.676Z,4.43
2023-04-21T15:04:02.730Z,5.50
2023-04-21T15:09:05.148Z,4.90
2023-04-21T15:14:07.404Z,5.22
2023-04-21T15:19:10.895Z,5.03
2023-04-21T15:24:13.130Z,4.25
2023-04-21T15:29:15.353Z,3.97
2023-04-21T15:34:18.886Z,4.18
2023-04-21T15:39:21.022Z,3.70
2023-04-21T15:44:23.204Z,3.58
2023-04-21T15:49:26.955Z,4.10
2023-04-21T15:54:29.255Z,4.03
2023-04-21T15:59:31.394Z,3.95
2023-04-21T16:04:35.253Z,3.85
2023-04-21T16:09:38.273Z,3.85
2023-04-21T16:14:54.564Z,4.13
2023-04-21T16:20:00.994Z,3.75
2023-04-21T16:25:03.270Z,4.43
2023-04-21T16:30:08.403Z,4.07
2023-04-21T16:35:12.267Z,3.72
2023-04-21T16:40:14.408Z,4.57
2023-04-21T16:45:16.712Z,4.85
2023-04-21T16:50:20.305Z,5.03
2023-04-21T16:55:22.495Z,4.80
2023-04-21T17:00:24.830Z,4.70
2023-04-21T17:05:28.369Z,4.60
2023-04-21T17:10:30.459Z,5.60
2023-04-21T17:15:33.509Z,4.43
2023-04-21T17:20:37.081Z,5.50
2023-04-21T17:25:39.474Z,5.35
2023-04-21T17:30:41.706Z,4.93
2023-04-21T17:35:59.993Z,4.72
2023-04-21T17:41:05.363Z,5.65
2023-04-21T17:46:07.713Z,4.90
2023-04-21T17:51:11.319Z,5.80
2023-04-21T17:56:13.758Z,5.32
2023-04-21T18:01:15.916Z,5.70
2023-04-21T18:06:19.621Z,6.05
2023-04-21T18:11:21.890Z,5.93
2023-04-21T18:16:24.104Z,5.75
2023-04-21T18:21:27.863Z,5.30
2023-04-21T18:26:29.991Z,5.10
2023-04-21T18:31:32.326Z,5.60
2023-04-21T18:36:38.209Z,5.20
2023-04-21T18:41:40.791Z,5.82
2023-04-21T18:46:42.960Z,5.20
2023-04-21T18:51:47.093Z,6.15
2023-04-21T18:56:51.268Z,7.15
2023-04-21T19:01:53.557Z,6.20
2023-04-21T19:06:57.221Z,6.28
2023-04-21T19:11:59.392Z,6.47
2023-04-21T19:17:01.571Z,5.70
2023-04-21T19:22:05.121Z,6.57
2023-04-21T19:27:07.227Z,6.18
2023-04-21T19:32:10.708Z,6.93
2023-04-21T19:37:15.672Z,6.05
2023-04-21T19:42:18.227Z,7.57
2023-04-21T19:52:48.336Z,7.40
2023-04-21T19:57:50.834Z,7.50
2023-04-21T20:02:53.429Z,6.85
2023-04-21T20:07:57.645Z,7.10
2023-04-21T20:13:01.910Z,7.15
2023-04-21T20:18:04.406Z,8.27
2023-04-21T20:23:08.317Z,7.45
2023-04-21T20:28:10.535Z,8.98
2023-04-21T20:33:12.874Z,7.80
2023-04-21T20:38:16.638Z,7.22
2023-04-21T20:43:19.103Z,6.55
2023-04-21T20:48:21.422Z,7.10
2023-04-21T20:53:25.307Z,7.35
2023-04-21T20:58:27.785Z,7.75
2023-04-21T21:03:30.090Z,7.35
2023-04-21T21:08:34.926Z,7.03
2023-04-21T21:13:37.418Z,5.53
2023-04-21T21:18:39.617Z,7.63
2023-04-21T21:23:43.607Z,8.15
2023-04-21T21:28:46.026Z,8.20
2023-04-21T21:33:48.582Z,8.32
2023-04-21T21:38:52.479Z,8.27
2023-04-21T21:43:54.758Z,8.13
2023-04-21T21:48:57.137Z,7.20
2023-04-21T21:54:09.552Z,7.88
2023-04-21T21:59:12.133Z,8.35
2023-04-21T22:04:14.645Z,8.43
2023-04-21T22:09:20.489Z,7.18
2023-04-21T22:14:23.990Z,8.90
2023-04-21T22:19:26.864Z,7.38
2023-04-21T22:24:30.610Z,7.60
2023-04-21T22:29:33.231Z,8.38
2023-04-21T22:34:35.877Z,8.90
2023-04-21T22:39:39.817Z,7.97
2023-04-21T22:44:42.815Z,7.07
2023-04-21T22:49:45.077Z,8.20
2023-04-21T22:54:49.101Z,8.43
2023-04-21T22:59:52.150Z,8.30
2023-04-21T23:04:55.060Z,8.20
2023-04-21T23:09:58.766Z,8.80
2023-04-21T23:15:01.140Z,8.95
2023-04-21T23:20:03.819Z,8.10
2023-04-21T23:25:09.393Z,8.15
2023-04-21T23:30:12.676Z,8.45
2023-04-21T23:35:15.039Z,8.77
2023-04-21T23:40:19.176Z,6.93
2023-04-21T23:45:21.851Z,7.07
2023-04-21T23:50:34.841Z,7.95
2023-04-21T23:55:42.261Z,8.07
